CCGS Cape Naden — CFN5482 — position and weather

sailwx.info

Track history (hours):
 
Tides and Currents Weather Stations Pressure Air Temp Water Temp Dewpoint Dewpoint Depression Visibility Wind Speed Wind Dir Waves Ship Positions

CCGS Cape Naden

Last reported at 2018-Apr-24 03:43 UTC. Time now 2018-Apr-25 02:49 UTC.
Position N 48°51' W 123°29'.

Length 15 m; draft 0.8 m.

Type: SAR. MMSI: 316017162.

Date/timePositionNaut miles runAvg speedWind from/ knotsBaromVisibWave heightAir tempDewpointWater temp
2018-Apr-24 03:43N 48°51' W 123°29'622.2
2018-Apr-24 03:26N 48°46' W 123°22'818.3
2018-Apr-24 03:00N 48°44' W 123°33'1 2.6
2018-Apr-24 02:31N 48°43' W 123°32'713.6
2018-Apr-24 01:59N 48°49' W 123°26'1 0.0
2018-Apr-22 20:41N 48°50' W 123°27'521.9
2018-Apr-22 20:28N 48°47' W 123°22'817.7
2018-Apr-22 20:01N 48°45' W 123°34'3 5.3
2018-Apr-22 19:30N 48°48' W 123°36'0 0.0
2018-Apr-22 19:00N 48°48' W 123°36'2 3.9
2018-Apr-22 18:30N 48°49' W 123°35'1223.4
2018-Apr-22 17:59N 48°59' W 123°46'3 6.5
2018-Apr-22 17:30N 48°57' W 123°43'10 0.3
2018-Apr-21 09:12N 48°51' W 123°30'0 0.0
2018-Apr-19 21:43N 48°51' W 123°29'414.5
2018-Apr-19 21:28N 48°49' W 123°25'817.4
2018-Apr-19 21:01N 48°42' W 123°30'1 1.7
2018-Apr-19 20:30N 48°42' W 123°28'2 3.7
2018-Apr-19 20:01N 48°42' W 123°26'611.4
2018-Apr-19 19:30N 48°39' W 123°33'0 0.0
2018-Apr-19 19:00N 48°39' W 123°33'0 0.0
2018-Apr-19 18:30N 48°39' W 123°33'4 8.1
2018-Apr-19 18:00N 48°39' W 123°27'611.4
2018-Apr-19 17:31N 48°44' W 123°24'  
Track history (hours):
 
Tides and Currents Weather Stations Pressure Air Temp Water Temp Dewpoint Dewpoint Depression Visibility Wind Speed Wind Dir Waves Ship Positions

CCGS Cape Naden

Last reported at 2018-Apr-24 03:43 UTC. Time now 2018-Apr-25 02:49 UTC.
Position N 48°51' W 123°29'.

Length 15 m; draft 0.8 m.

Type: SAR. MMSI: 316017162.

Date/timePositionNaut miles runAvg speedWind from/ knotsBaromVisibWave heightAir tempDewpointWater temp
2018-Apr-24 03:43N 48°51' W 123°29'622.2
2018-Apr-24 03:26N 48°46' W 123°22'818.3
2018-Apr-24 03:00N 48°44' W 123°33'1 2.6
2018-Apr-24 02:31N 48°43' W 123°32'713.6
2018-Apr-24 01:59N 48°49' W 123°26'1 0.0
2018-Apr-22 20:41N 48°50' W 123°27'521.9
2018-Apr-22 20:28N 48°47' W 123°22'817.7
2018-Apr-22 20:01N 48°45' W 123°34'3 5.3
2018-Apr-22 19:30N 48°48' W 123°36'0 0.0
2018-Apr-22 19:00N 48°48' W 123°36'2 3.9
2018-Apr-22 18:30N 48°49' W 123°35'1223.4
2018-Apr-22 17:59N 48°59' W 123°46'3 6.5
2018-Apr-22 17:30N 48°57' W 123°43'10 0.3
2018-Apr-21 09:12N 48°51' W 123°30'0 0.0
2018-Apr-19 21:43N 48°51' W 123°29'414.5
2018-Apr-19 21:28N 48°49' W 123°25'817.4
2018-Apr-19 21:01N 48°42' W 123°30'1 1.7
2018-Apr-19 20:30N 48°42' W 123°28'2 3.7
2018-Apr-19 20:01N 48°42' W 123°26'611.4
2018-Apr-19 19:30N 48°39' W 123°33'0 0.0
2018-Apr-19 19:00N 48°39' W 123°33'0 0.0
2018-Apr-19 18:30N 48°39' W 123°33'4 8.1
2018-Apr-19 18:00N 48°39' W 123°27'611.4
2018-Apr-19 17:31N 48°44' W 123°24'  

Dump ship's entire track history